sensor_id;sensor_type;location;lat;lon;timestamp;P1;durP1;ratioP1;P2;durP2;ratioP2
48881;SDS011;57063;51.406;-2.402;2023-08-20T00:01:04;14.15;;;2.35;;
48881;SDS011;57063;51.406;-2.402;2023-08-20T00:03:29;13.52;;;2.70;;
48881;SDS011;57063;51.406;-2.402;2023-08-20T00:05:55;12.68;;;2.42;;
48881;SDS011;57063;51.406;-2.402;2023-08-20T00:08:21;12.95;;;2.70;;
48881;SDS011;57063;51.406;-2.402;2023-08-20T00:10:46;18.75;;;3.08;;
48881;SDS011;57063;51.406;-2.402;2023-08-20T00:13:12;14.98;;;3.97;;
48881;SDS011;57063;51.406;-2.402;2023-08-20T00:15:37;18.42;;;2.90;;
48881;SDS011;57063;51.406;-2.402;2023-08-20T00:18:03;18.92;;;3.83;;
48881;SDS011;57063;51.406;-2.402;2023-08-20T00:20:29;20.77;;;3.05;;
48881;SDS011;57063;51.406;-2.402;2023-08-20T00:22:55;29.15;;;4.40;;
48881;SDS011;57063;51.406;-2.402;2023-08-20T00:25:20;16.98;;;3.53;;
48881;SDS011;57063;51.406;-2.402;2023-08-20T00:27:46;20.98;;;4.63;;
48881;SDS011;57063;51.406;-2.402;2023-08-20T00:30:11;17.40;;;3.17;;
48881;SDS011;57063;51.406;-2.402;2023-08-20T00:32:37;11.02;;;3.22;;
48881;SDS011;57063;51.406;-2.402;2023-08-20T00:35:03;9.60;;;2.08;;
48881;SDS011;57063;51.406;-2.402;2023-08-20T00:37:29;10.80;;;2.70;;
48881;SDS011;57063;51.406;-2.402;2023-08-20T00:39:55;15.63;;;2.53;;
48881;SDS011;57063;51.406;-2.402;2023-08-20T00:42:22;10.88;;;2.05;;
48881;SDS011;57063;51.406;-2.402;2023-08-20T00:44:50;12.32;;;2.85;;
48881;SDS011;57063;51.406;-2.402;2023-08-20T00:47:16;14.07;;;3.08;;
48881;SDS011;57063;51.406;-2.402;2023-08-20T00:49:42;7.80;;;1.92;;
48881;SDS011;57063;51.406;-2.402;2023-08-20T00:52:11;17.17;;;3.03;;
48881;SDS011;57063;51.406;-2.402;2023-08-20T00:54:42;13.20;;;2.67;;
48881;SDS011;57063;51.406;-2.402;2023-08-20T00:57:10;9.15;;;2.50;;
48881;SDS011;57063;51.406;-2.402;2023-08-20T00:59:36;14.80;;;4.35;;
48881;SDS011;57063;51.406;-2.402;2023-08-20T01:02:01;10.95;;;2.15;;
48881;SDS011;57063;51.406;-2.402;2023-08-20T01:04:28;13.15;;;2.40;;
48881;SDS011;57063;51.406;-2.402;2023-08-20T01:09:37;13.75;;;2.85;;
48881;SDS011;57063;51.406;-2.402;2023-08-20T01:12:15;11.82;;;2.33;;
48881;SDS011;57063;51.406;-2.402;2023-08-20T01:14:42;8.90;;;1.90;;
48881;SDS011;57063;51.406;-2.402;2023-08-20T01:17:07;7.95;;;2.45;;
48881;SDS011;57063;51.406;-2.402;2023-08-20T01:19:33;5.72;;;2.13;;
48881;SDS011;57063;51.406;-2.402;2023-08-20T01:28:15;11.60;;;2.35;;
48881;SDS011;57063;51.406;-2.402;2023-08-20T01:30:50;11.52;;;2.30;;
48881;SDS011;57063;51.406;-2.402;2023-08-20T01:33:17;8.00;;;1.40;;
48881;SDS011;57063;51.406;-2.402;2023-08-20T01:35:44;8.18;;;1.67;;
48881;SDS011;57063;51.406;-2.402;2023-08-20T01:38:09;11.18;;;2.50;;
48881;SDS011;57063;51.406;-2.402;2023-08-20T01:40:34;12.85;;;2.35;;
48881;SDS011;57063;51.406;-2.402;2023-08-20T01:43:00;6.88;;;1.58;;
48881;SDS011;57063;51.406;-2.402;2023-08-20T01:45:25;9.40;;;3.30;;
48881;SDS011;57063;51.406;-2.402;2023-08-20T01:47:51;10.38;;;2.20;;
48881;SDS011;57063;51.406;-2.402;2023-08-20T01:50:16;8.40;;;2.55;;
48881;SDS011;57063;51.406;-2.402;2023-08-20T01:52:42;12.23;;;1.92;;
48881;SDS011;57063;51.406;-2.402;2023-08-20T01:55:07;12.60;;;2.85;;
48881;SDS011;57063;51.406;-2.402;2023-08-20T01:57:33;8.88;;;2.10;;
48881;SDS011;57063;51.406;-2.402;2023-08-20T01:59:58;7.07;;;2.08;;
48881;SDS011;57063;51.406;-2.402;2023-08-20T02:02:24;8.80;;;2.17;;
48881;SDS011;57063;51.406;-2.402;2023-08-20T02:04:50;13.35;;;2.58;;
48881;SDS011;57063;51.406;-2.402;2023-08-20T02:07:15;12.30;;;2.50;;
48881;SDS011;57063;51.406;-2.402;2023-08-20T02:09:41;8.65;;;2.75;;
48881;SDS011;57063;51.406;-2.402;2023-08-20T02:12:06;16.60;;;2.67;;
48881;SDS011;57063;51.406;-2.402;2023-08-20T02:14:32;12.32;;;2.53;;
48881;SDS011;57063;51.406;-2.402;2023-08-20T02:17:03;11.45;;;2.05;;
48881;SDS011;57063;51.406;-2.402;2023-08-20T02:19:29;11.48;;;2.33;;
48881;SDS011;57063;51.406;-2.402;2023-08-20T02:21:54;14.75;;;2.95;;
48881;SDS011;57063;51.406;-2.402;2023-08-20T02:24:20;10.00;;;2.67;;
48881;SDS011;57063;51.406;-2.402;2023-08-20T02:26:45;11.60;;;2.42;;
48881;SDS011;57063;51.406;-2.402;2023-08-20T02:29:10;14.82;;;2.53;;
48881;SDS011;57063;51.406;-2.402;2023-08-20T02:31:36;15.65;;;2.30;;
48881;SDS011;57063;51.406;-2.402;2023-08-20T02:34:02;13.02;;;2.03;;
48881;SDS011;57063;51.406;-2.402;2023-08-20T02:36:27;7.63;;;1.80;;
48881;SDS011;57063;51.406;-2.402;2023-08-20T02:38:53;16.02;;;3.30;;
48881;SDS011;57063;51.406;-2.402;2023-08-20T02:41:18;15.40;;;3.65;;
48881;SDS011;57063;51.406;-2.402;2023-08-20T02:43:44;8.85;;;2.40;;
48881;SDS011;57063;51.406;-2.402;2023-08-20T02:46:10;9.82;;;2.35;;
48881;SDS011;57063;51.406;-2.402;2023-08-20T02:48:35;7.97;;;2.53;;
48881;SDS011;57063;51.406;-2.402;2023-08-20T02:51:00;11.57;;;1.95;;
48881;SDS011;57063;51.406;-2.402;2023-08-20T02:53:26;9.75;;;2.33;;
48881;SDS011;57063;51.406;-2.402;2023-08-20T02:55:51;13.02;;;2.47;;
48881;SDS011;57063;51.406;-2.402;2023-08-20T02:58:17;14.32;;;2.53;;
48881;SDS011;57063;51.406;-2.402;2023-08-20T03:00:42;9.40;;;2.28;;
48881;SDS011;57063;51.406;-2.402;2023-08-20T03:03:10;13.95;;;3.50;;
48881;SDS011;57063;51.406;-2.402;2023-08-20T03:05:35;12.55;;;2.60;;
48881;SDS011;57063;51.406;-2.402;2023-08-20T03:08:01;7.35;;;1.75;;
48881;SDS011;57063;51.406;-2.402;2023-08-20T03:10:28;14.25;;;2.60;;
48881;SDS011;57063;51.406;-2.402;2023-08-20T03:12:55;13.02;;;2.70;;
48881;SDS011;57063;51.406;-2.402;2023-08-20T03:15:20;9.43;;;2.30;;
48881;SDS011;57063;51.406;-2.402;2023-08-20T03:17:45;6.53;;;2.95;;
48881;SDS011;57063;51.406;-2.402;2023-08-20T03:20:11;8.57;;;2.40;;
48881;SDS011;57063;51.406;-2.402;2023-08-20T03:22:37;13.82;;;3.78;;
48881;SDS011;57063;51.406;-2.402;2023-08-20T03:25:03;11.13;;;2.70;;
48881;SDS011;57063;51.406;-2.402;2023-08-20T03:27:29;8.02;;;2.47;;
48881;SDS011;57063;51.406;-2.402;2023-08-20T03:29:54;16.75;;;3.58;;
48881;SDS011;57063;51.406;-2.402;2023-08-20T03:32:20;10.23;;;2.47;;
48881;SDS011;57063;51.406;-2.402;2023-08-20T03:34:45;9.02;;;1.92;;
48881;SDS011;57063;51.406;-2.402;2023-08-20T03:37:11;6.90;;;2.20;;
48881;SDS011;57063;51.406;-2.402;2023-08-20T03:39:36;13.68;;;3.13;;
48881;SDS011;57063;51.406;-2.402;2023-08-20T03:42:02;8.80;;;2.42;;
48881;SDS011;57063;51.406;-2.402;2023-08-20T03:44:27;12.52;;;2.47;;
48881;SDS011;57063;51.406;-2.402;2023-08-20T03:46:54;11.77;;;2.25;;
48881;SDS011;57063;51.406;-2.402;2023-08-20T03:49:19;25.25;;;2.90;;
48881;SDS011;57063;51.406;-2.402;2023-08-20T03:51:45;13.80;;;3.03;;
48881;SDS011;57063;51.406;-2.402;2023-08-20T03:54:10;9.10;;;2.58;;
48881;SDS011;57063;51.406;-2.402;2023-08-20T03:56:35;5.57;;;1.92;;
48881;SDS011;57063;51.406;-2.402;2023-08-20T03:59:01;15.65;;;2.70;;
48881;SDS011;57063;51.406;-2.402;2023-08-20T04:01:27;11.38;;;2.50;;
48881;SDS011;57063;51.406;-2.402;2023-08-20T04:03:52;15.73;;;2.58;;
48881;SDS011;57063;51.406;-2.402;2023-08-20T04:06:17;9.77;;;2.67;;
48881;SDS011;57063;51.406;-2.402;2023-08-20T04:08:43;14.02;;;2.78;;
48881;SDS011;57063;51.406;-2.402;2023-08-20T04:11:08;7.35;;;2.45;;
48881;SDS011;57063;51.406;-2.402;2023-08-20T04:13:34;8.88;;;2.60;;
48881;SDS011;57063;51.406;-2.402;2023-08-20T04:15:59;8.05;;;1.80;;
48881;SDS011;57063;51.406;-2.402;2023-08-20T04:18:25;12.27;;;2.58;;
48881;SDS011;57063;51.406;-2.402;2023-08-20T04:20:51;6.78;;;2.40;;
48881;SDS011;57063;51.406;-2.402;2023-08-20T04:23:17;7.65;;;2.90;;
48881;SDS011;57063;51.406;-2.402;2023-08-20T04:25:43;9.25;;;2.42;;
48881;SDS011;57063;51.406;-2.402;2023-08-20T04:28:10;12.35;;;3.40;;
48881;SDS011;57063;51.406;-2.402;2023-08-20T04:30:38;16.77;;;2.53;;
48881;SDS011;57063;51.406;-2.402;2023-08-20T04:33:03;7.32;;;2.30;;
48881;SDS011;57063;51.406;-2.402;2023-08-20T04:35:29;6.93;;;2.90;;
48881;SDS011;57063;51.406;-2.402;2023-08-20T04:37:55;10.95;;;3.50;;
48881;SDS011;57063;51.406;-2.402;2023-08-20T04:40:21;16.52;;;4.25;;
48881;SDS011;57063;51.406;-2.402;2023-08-20T04:42:46;10.27;;;2.63;;
48881;SDS011;57063;51.406;-2.402;2023-08-20T04:45:11;8.60;;;2.15;;
48881;SDS011;57063;51.406;-2.402;2023-08-20T04:47:37;9.10;;;2.38;;
48881;SDS011;57063;51.406;-2.402;2023-08-20T04:50:03;18.00;;;3.67;;
48881;SDS011;57063;51.406;-2.402;2023-08-20T04:52:32;11.60;;;3.30;;
48881;SDS011;57063;51.406;-2.402;2023-08-20T04:54:58;13.50;;;3.38;;
48881;SDS011;57063;51.406;-2.402;2023-08-20T04:57:23;32.28;;;5.05;;
48881;SDS011;57063;51.406;-2.402;2023-08-20T04:59:49;17.70;;;3.80;;
48881;SDS011;57063;51.406;-2.402;2023-08-20T05:02:14;10.02;;;3.20;;
48881;SDS011;57063;51.406;-2.402;2023-08-20T05:04:40;8.52;;;3.15;;
48881;SDS011;57063;51.406;-2.402;2023-08-20T05:07:05;14.85;;;4.35;;
48881;SDS011;57063;51.406;-2.402;2023-08-20T05:09:31;19.27;;;3.72;;
48881;SDS011;57063;51.406;-2.402;2023-08-20T05:11:57;15.40;;;3.63;;
48881;SDS011;57063;51.406;-2.402;2023-08-20T05:14:23;17.27;;;4.05;;
48881;SDS011;57063;51.406;-2.402;2023-08-20T05:16:48;19.20;;;3.60;;
48881;SDS011;57063;51.406;-2.402;2023-08-20T05:19:13;20.30;;;3.97;;
48881;SDS011;57063;51.406;-2.402;2023-08-20T05:21:39;14.23;;;3.42;;
48881;SDS011;57063;51.406;-2.402;2023-08-20T05:24:04;24.90;;;5.57;;
48881;SDS011;57063;51.406;-2.402;2023-08-20T05:26:30;19.38;;;4.15;;
48881;SDS011;57063;51.406;-2.402;2023-08-20T05:28:55;36.47;;;5.70;;
48881;SDS011;57063;51.406;-2.402;2023-08-20T05:31:20;14.63;;;3.45;;
48881;SDS011;57063;51.406;-2.402;2023-08-20T05:33:46;18.25;;;4.05;;
48881;SDS011;57063;51.406;-2.402;2023-08-20T05:36:11;14.85;;;3.83;;
48881;SDS011;57063;51.406;-2.402;2023-08-20T05:38:37;14.82;;;3.00;;
48881;SDS011;57063;51.406;-2.402;2023-08-20T05:41:02;16.17;;;3.92;;
48881;SDS011;57063;51.406;-2.402;2023-08-20T05:43:27;17.77;;;3.90;;
48881;SDS011;57063;51.406;-2.402;2023-08-20T05:45:53;19.38;;;4.28;;
48881;SDS011;57063;51.406;-2.402;2023-08-20T05:48:18;23.55;;;4.07;;
48881;SDS011;57063;51.406;-2.402;2023-08-20T05:50:44;18.80;;;3.60;;
48881;SDS011;57063;51.406;-2.402;2023-08-20T05:53:09;22.58;;;4.35;;
48881;SDS011;57063;51.406;-2.402;2023-08-20T05:55:34;19.27;;;4.22;;
48881;SDS011;57063;51.406;-2.402;2023-08-20T05:58:00;11.75;;;3.83;;
48881;SDS011;57063;51.406;-2.402;2023-08-20T06:00:25;23.48;;;4.88;;
48881;SDS011;57063;51.406;-2.402;2023-08-20T06:02:51;9.80;;;2.92;;
48881;SDS011;57063;51.406;-2.402;2023-08-20T06:05:16;16.63;;;3.45;;
48881;SDS011;57063;51.406;-2.402;2023-08-20T06:07:41;14.63;;;3.88;;
48881;SDS011;57063;51.406;-2.402;2023-08-20T06:10:07;12.98;;;3.20;;
48881;SDS011;57063;51.406;-2.402;2023-08-20T06:12:33;11.60;;;3.13;;
48881;SDS011;57063;51.406;-2.402;2023-08-20T06:14:59;10.30;;;2.55;;
48881;SDS011;57063;51.406;-2.402;2023-08-20T06:17:24;11.02;;;2.90;;
48881;SDS011;57063;51.406;-2.402;2023-08-20T06:19:50;11.65;;;2.95;;
48881;SDS011;57063;51.406;-2.402;2023-08-20T06:22:15;11.80;;;2.97;;
48881;SDS011;57063;51.406;-2.402;2023-08-20T06:24:40;19.48;;;3.38;;
48881;SDS011;57063;51.406;-2.402;2023-08-20T06:27:06;12.38;;;2.70;;
48881;SDS011;57063;51.406;-2.402;2023-08-20T06:29:31;13.75;;;2.80;;
48881;SDS011;57063;51.406;-2.402;2023-08-20T06:31:56;12.00;;;3.45;;
48881;SDS011;57063;51.406;-2.402;2023-08-20T06:34:22;16.92;;;3.40;;
48881;SDS011;57063;51.406;-2.402;2023-08-20T06:36:48;15.18;;;3.42;;
48881;SDS011;57063;51.406;-2.402;2023-08-20T06:39:14;15.77;;;3.17;;
48881;SDS011;57063;51.406;-2.402;2023-08-20T06:41:40;18.63;;;3.47;;
48881;SDS011;57063;51.406;-2.402;2023-08-20T06:44:06;13.32;;;3.40;;
48881;SDS011;57063;51.406;-2.402;2023-08-20T06:46:31;14.13;;;2.83;;
48881;SDS011;57063;51.406;-2.402;2023-08-20T06:48:57;11.15;;;2.65;;
48881;SDS011;57063;51.406;-2.402;2023-08-20T06:51:22;13.70;;;2.80;;
48881;SDS011;57063;51.406;-2.402;2023-08-20T06:53:48;14.65;;;3.20;;
48881;SDS011;57063;51.406;-2.402;2023-08-20T06:56:14;11.35;;;2.80;;
48881;SDS011;57063;51.406;-2.402;2023-08-20T06:58:40;11.57;;;3.10;;
48881;SDS011;57063;51.406;-2.402;2023-08-20T07:01:06;13.85;;;3.50;;
48881;SDS011;57063;51.406;-2.402;2023-08-20T07:03:37;14.05;;;2.70;;
48881;SDS011;57063;51.406;-2.402;2023-08-20T07:06:03;17.70;;;3.50;;
48881;SDS011;57063;51.406;-2.402;2023-08-20T07:08:29;15.60;;;3.42;;
48881;SDS011;57063;51.406;-2.402;2023-08-20T07:10:54;18.95;;;3.25;;
48881;SDS011;57063;51.406;-2.402;2023-08-20T07:13:20;16.10;;;2.88;;
48881;SDS011;57063;51.406;-2.402;2023-08-20T07:15:45;13.07;;;2.45;;
48881;SDS011;57063;51.406;-2.402;2023-08-20T07:18:11;12.30;;;3.33;;
48881;SDS011;57063;51.406;-2.402;2023-08-20T07:20:38;11.25;;;2.60;;
48881;SDS011;57063;51.406;-2.402;2023-08-20T07:23:04;10.95;;;2.33;;
48881;SDS011;57063;51.406;-2.402;2023-08-20T07:25:30;17.20;;;2.75;;
48881;SDS011;57063;51.406;-2.402;2023-08-20T07:27:55;13.10;;;2.75;;
48881;SDS011;57063;51.406;-2.402;2023-08-20T07:30:24;10.35;;;2.90;;
48881;SDS011;57063;51.406;-2.402;2023-08-20T07:32:50;9.10;;;2.08;;
48881;SDS011;57063;51.406;-2.402;2023-08-20T07:35:16;9.45;;;2.50;;
48881;SDS011;57063;51.406;-2.402;2023-08-20T07:37:42;14.50;;;2.65;;
48881;SDS011;57063;51.406;-2.402;2023-08-20T07:40:07;9.57;;;2.15;;
48881;SDS011;57063;51.406;-2.402;2023-08-20T07:42:34;9.25;;;1.92;;
48881;SDS011;57063;51.406;-2.402;2023-08-20T07:44:59;13.80;;;1.95;;
48881;SDS011;57063;51.406;-2.402;2023-08-20T07:47:24;12.50;;;3.08;;
48881;SDS011;57063;51.406;-2.402;2023-08-20T07:49:50;8.35;;;1.77;;
48881;SDS011;57063;51.406;-2.402;2023-08-20T07:52:15;8.63;;;2.10;;
48881;SDS011;57063;51.406;-2.402;2023-08-20T07:54:41;6.15;;;1.60;;
48881;SDS011;57063;51.406;-2.402;2023-08-20T07:57:07;10.80;;;1.92;;
48881;SDS011;57063;51.406;-2.402;2023-08-20T07:59:32;10.80;;;2.47;;
48881;SDS011;57063;51.406;-2.402;2023-08-20T08:01:58;10.00;;;1.63;;
48881;SDS011;57063;51.406;-2.402;2023-08-20T08:04:23;10.20;;;2.45;;
48881;SDS011;57063;51.406;-2.402;2023-08-20T08:06:49;10.20;;;2.30;;
48881;SDS011;57063;51.406;-2.402;2023-08-20T08:09:17;11.00;;;2.45;;
48881;SDS011;57063;51.406;-2.402;2023-08-20T08:11:53;9.90;;;1.67;;
48881;SDS011;57063;51.406;-2.402;2023-08-20T08:14:28;10.52;;;2.13;;
48881;SDS011;57063;51.406;-2.402;2023-08-20T08:17:01;7.60;;;1.63;;
48881;SDS011;57063;51.406;-2.402;2023-08-20T08:22:01;8.10;;;1.50;;
48881;SDS011;57063;51.406;-2.402;2023-08-20T08:24:27;10.57;;;2.53;;
48881;SDS011;57063;51.406;-2.402;2023-08-20T08:26:53;10.57;;;1.30;;
48881;SDS011;57063;51.406;-2.402;2023-08-20T08:29:18;6.88;;;1.48;;
48881;SDS011;57063;51.406;-2.402;2023-08-20T08:31:44;7.60;;;1.35;;
48881;SDS011;57063;51.406;-2.402;2023-08-20T08:34:12;11.13;;;1.67;;
48881;SDS011;57063;51.406;-2.402;2023-08-20T08:36:39;14.48;;;2.42;;
48881;SDS011;57063;51.406;-2.402;2023-08-20T08:39:04;7.25;;;1.48;;
48881;SDS011;57063;51.406;-2.402;2023-08-20T08:41:30;8.77;;;1.95;;
48881;SDS011;57063;51.406;-2.402;2023-08-20T08:46:37;8.10;;;1.58;;
48881;SDS011;57063;51.406;-2.402;2023-08-20T08:49:03;9.23;;;1.40;;
48881;SDS011;57063;51.406;-2.402;2023-08-20T08:51:30;8.98;;;1.88;;
48881;SDS011;57063;51.406;-2.402;2023-08-20T08:53:56;6.28;;;1.55;;
48881;SDS011;57063;51.406;-2.402;2023-08-20T08:56:25;9.80;;;1.58;;
48881;SDS011;57063;51.406;-2.402;2023-08-20T08:58:50;6.13;;;1.42;;
48881;SDS011;57063;51.406;-2.402;2023-08-20T09:01:15;11.27;;;2.42;;
48881;SDS011;57063;51.406;-2.402;2023-08-20T09:03:41;6.22;;;0.98;;
48881;SDS011;57063;51.406;-2.402;2023-08-20T09:06:12;7.20;;;1.33;;
48881;SDS011;57063;51.406;-2.402;2023-08-20T09:11:03;6.18;;;1.13;;
48881;SDS011;57063;51.406;-2.402;2023-08-20T09:13:36;6.22;;;1.02;;
48881;SDS011;57063;51.406;-2.402;2023-08-20T09:16:10;7.40;;;0.88;;
48881;SDS011;57063;51.406;-2.402;2023-08-20T09:21:13;6.50;;;1.20;;
48881;SDS011;57063;51.406;-2.402;2023-08-20T09:23:39;5.75;;;0.80;;
48881;SDS011;57063;51.406;-2.402;2023-08-20T09:26:05;6.90;;;0.95;;
48881;SDS011;57063;51.406;-2.402;2023-08-20T09:28:40;6.30;;;1.15;;
48881;SDS011;57063;51.406;-2.402;2023-08-20T09:31:11;6.80;;;0.90;;
48881;SDS011;57063;51.406;-2.402;2023-08-20T09:33:50;9.80;;;1.10;;
48881;SDS011;57063;51.406;-2.402;2023-08-20T09:36:28;6.07;;;0.98;;
48881;SDS011;57063;51.406;-2.402;2023-08-20T09:38:55;5.45;;;1.30;;
48881;SDS011;57063;51.406;-2.402;2023-08-20T09:41:21;10.07;;;1.55;;
48881;SDS011;57063;51.406;-2.402;2023-08-20T09:43:48;4.60;;;0.90;;
48881;SDS011;57063;51.406;-2.402;2023-08-20T09:46:13;6.18;;;1.05;;
48881;SDS011;57063;51.406;-2.402;2023-08-20T09:48:42;5.85;;;1.10;;
48881;SDS011;57063;51.406;-2.402;2023-08-20T09:51:13;9.73;;;1.52;;
48881;SDS011;57063;51.406;-2.402;2023-08-20T09:53:45;4.97;;;1.00;;
48881;SDS011;57063;51.406;-2.402;2023-08-20T09:56:27;11.70;;;2.67;;
48881;SDS011;57063;51.406;-2.402;2023-08-20T09:58:59;8.32;;;1.25;;
48881;SDS011;57063;51.406;-2.402;2023-08-20T10:01:25;7.57;;;1.40;;
48881;SDS011;57063;51.406;-2.402;2023-08-20T10:03:52;5.95;;;0.90;;
48881;SDS011;57063;51.406;-2.402;2023-08-20T10:06:18;5.70;;;0.90;;
48881;SDS011;57063;51.406;-2.402;2023-08-20T10:08:43;6.72;;;0.80;;
48881;SDS011;57063;51.406;-2.402;2023-08-20T10:11:11;5.75;;;1.65;;
48881;SDS011;57063;51.406;-2.402;2023-08-20T10:13:37;4.85;;;0.80;;
48881;SDS011;57063;51.406;-2.402;2023-08-20T10:16:03;6.70;;;1.00;;
48881;SDS011;57063;51.406;-2.402;2023-08-20T10:18:28;10.75;;;2.15;;
48881;SDS011;57063;51.406;-2.402;2023-08-20T10:20:56;3.90;;;0.57;;
48881;SDS011;57063;51.406;-2.402;2023-08-20T10:23:22;3.70;;;0.75;;
48881;SDS011;57063;51.406;-2.402;2023-08-20T10:25:48;4.32;;;1.25;;
48881;SDS011;57063;51.406;-2.402;2023-08-20T10:28:14;7.13;;;1.00;;
48881;SDS011;57063;51.406;-2.402;2023-08-20T10:33:38;6.07;;;0.90;;
48881;SDS011;57063;51.406;-2.402;2023-08-20T10:36:18;5.78;;;0.93;;
48881;SDS011;57063;51.406;-2.402;2023-08-20T10:38:51;6.10;;;0.88;;
48881;SDS011;57063;51.406;-2.402;2023-08-20T10:41:24;5.55;;;1.00;;
48881;SDS011;57063;51.406;-2.402;2023-08-20T10:43:50;4.68;;;1.15;;
48881;SDS011;57063;51.406;-2.402;2023-08-20T10:46:24;4.80;;;0.88;;
48881;SDS011;57063;51.406;-2.402;2023-08-20T10:51:18;3.92;;;1.27;;
48881;SDS011;57063;51.406;-2.402;2023-08-20T10:54:10;2.70;;;0.90;;
48881;SDS011;57063;51.406;-2.402;2023-08-20T10:56:46;3.75;;;0.88;;
48881;SDS011;57063;51.406;-2.402;2023-08-20T10:59:13;5.18;;;0.80;;
48881;SDS011;57063;51.406;-2.402;2023-08-20T11:01:49;4.95;;;0.90;;
48881;SDS011;57063;51.406;-2.402;2023-08-20T11:04:17;6.10;;;1.57;;
48881;SDS011;57063;51.406;-2.402;2023-08-20T11:06:45;4.53;;;0.88;;
48881;SDS011;57063;51.406;-2.402;2023-08-20T11:09:11;6.35;;;1.10;;
48881;SDS011;57063;51.406;-2.402;2023-08-20T11:11:37;6.13;;;1.00;;
48881;SDS011;57063;51.406;-2.402;2023-08-20T11:14:06;3.97;;;0.80;;
48881;SDS011;57063;51.406;-2.402;2023-08-20T11:16:37;3.42;;;0.98;;
48881;SDS011;57063;51.406;-2.402;2023-08-20T11:19:03;5.20;;;0.90;;
48881;SDS011;57063;51.406;-2.402;2023-08-20T11:21:36;7.43;;;1.80;;
48881;SDS011;57063;51.406;-2.402;2023-08-20T11:24:04;3.72;;;0.90;;
48881;SDS011;57063;51.406;-2.402;2023-08-20T11:26:30;5.35;;;1.40;;
48881;SDS011;57063;51.406;-2.402;2023-08-20T11:29:08;4.68;;;0.73;;
48881;SDS011;57063;51.406;-2.402;2023-08-20T11:31:37;6.05;;;1.13;;
48881;SDS011;57063;51.406;-2.402;2023-08-20T11:34:04;5.35;;;1.00;;
48881;SDS011;57063;51.406;-2.402;2023-08-20T11:36:30;2.58;;;0.80;;
48881;SDS011;57063;51.406;-2.402;2023-08-20T11:38:56;3.83;;;0.90;;
48881;SDS011;57063;51.406;-2.402;2023-08-20T11:41:22;2.63;;;0.55;;
48881;SDS011;57063;51.406;-2.402;2023-08-20T11:43:49;4.40;;;1.00;;
48881;SDS011;57063;51.406;-2.402;2023-08-20T11:46:18;3.40;;;0.88;;
48881;SDS011;57063;51.406;-2.402;2023-08-20T11:49:03;1.73;;;0.40;;
48881;SDS011;57063;51.406;-2.402;2023-08-20T11:51:37;3.80;;;1.13;;
48881;SDS011;57063;51.406;-2.402;2023-08-20T11:54:12;2.15;;;0.50;;
48881;SDS011;57063;51.406;-2.402;2023-08-20T11:56:46;2.08;;;0.50;;
48881;SDS011;57063;51.406;-2.402;2023-08-20T11:59:13;3.38;;;0.40;;
48881;SDS011;57063;51.406;-2.402;2023-08-20T12:01:39;4.45;;;0.68;;
48881;SDS011;57063;51.406;-2.402;2023-08-20T12:04:06;1.42;;;0.43;;
48881;SDS011;57063;51.406;-2.402;2023-08-20T12:06:33;4.78;;;0.60;;
48881;SDS011;57063;51.406;-2.402;2023-08-20T12:09:00;4.20;;;0.90;;
48881;SDS011;57063;51.406;-2.402;2023-08-20T12:11:30;4.63;;;0.88;;
48881;SDS011;57063;51.406;-2.402;2023-08-20T12:13:56;4.22;;;0.85;;
48881;SDS011;57063;51.406;-2.402;2023-08-20T12:16:22;5.90;;;0.82;;
48881;SDS011;57063;51.406;-2.402;2023-08-20T12:18:49;4.82;;;0.65;;
48881;SDS011;57063;51.406;-2.402;2023-08-20T12:21:14;3.90;;;0.80;;
48881;SDS011;57063;51.406;-2.402;2023-08-20T12:23:40;4.03;;;0.70;;
48881;SDS011;57063;51.406;-2.402;2023-08-20T12:26:05;3.97;;;1.08;;
48881;SDS011;57063;51.406;-2.402;2023-08-20T12:28:32;4.05;;;0.70;;
48881;SDS011;57063;51.406;-2.402;2023-08-20T12:30:58;7.65;;;1.20;;
48881;SDS011;57063;51.406;-2.402;2023-08-20T12:33:23;2.70;;;0.52;;
48881;SDS011;57063;51.406;-2.402;2023-08-20T12:35:49;4.25;;;0.80;;
48881;SDS011;57063;51.406;-2.402;2023-08-20T12:38:14;4.22;;;0.93;;
48881;SDS011;57063;51.406;-2.402;2023-08-20T12:40:40;7.80;;;0.90;;
48881;SDS011;57063;51.406;-2.402;2023-08-20T12:43:05;6.68;;;1.25;;
48881;SDS011;57063;51.406;-2.402;2023-08-20T12:45:31;8.27;;;1.20;;
48881;SDS011;57063;51.406;-2.402;2023-08-20T12:47:56;6.65;;;1.50;;
48881;SDS011;57063;51.406;-2.402;2023-08-20T12:50:22;4.20;;;1.05;;
48881;SDS011;57063;51.406;-2.402;2023-08-20T12:52:47;6.60;;;0.88;;
48881;SDS011;57063;51.406;-2.402;2023-08-20T12:55:15;4.18;;;1.02;;
48881;SDS011;57063;51.406;-2.402;2023-08-20T12:57:54;5.05;;;1.15;;
48881;SDS011;57063;51.406;-2.402;2023-08-20T13:00:24;4.63;;;1.20;;
48881;SDS011;57063;51.406;-2.402;2023-08-20T13:02:50;4.28;;;1.45;;
48881;SDS011;57063;51.406;-2.402;2023-08-20T13:05:19;5.20;;;0.93;;
48881;SDS011;57063;51.406;-2.402;2023-08-20T13:07:47;5.28;;;1.38;;
48881;SDS011;57063;51.406;-2.402;2023-08-20T13:10:12;4.65;;;0.73;;
48881;SDS011;57063;51.406;-2.402;2023-08-20T13:12:39;3.65;;;0.82;;
48881;SDS011;57063;51.406;-2.402;2023-08-20T13:15:06;4.05;;;0.90;;
48881;SDS011;57063;51.406;-2.402;2023-08-20T13:17:32;4.88;;;0.70;;
48881;SDS011;57063;51.406;-2.402;2023-08-20T13:19:58;2.30;;;0.73;;
48881;SDS011;57063;51.406;-2.402;2023-08-20T13:22:23;5.57;;;0.70;;
48881;SDS011;57063;51.406;-2.402;2023-08-20T13:24:49;1.27;;;0.57;;
48881;SDS011;57063;51.406;-2.402;2023-08-20T13:27:14;2.25;;;0.40;;
48881;SDS011;57063;51.406;-2.402;2023-08-20T13:29:40;2.53;;;0.50;;
48881;SDS011;57063;51.406;-2.402;2023-08-20T13:32:06;1.45;;;0.40;;
48881;SDS011;57063;51.406;-2.402;2023-08-20T13:34:31;1.80;;;0.43;;
48881;SDS011;57063;51.406;-2.402;2023-08-20T13:36:57;3.92;;;0.68;;
48881;SDS011;57063;51.406;-2.402;2023-08-20T13:39:22;4.15;;;0.70;;
48881;SDS011;57063;51.406;-2.402;2023-08-20T13:41:48;1.73;;;0.60;;
48881;SDS011;57063;51.406;-2.402;2023-08-20T13:44:15;3.95;;;0.60;;
48881;SDS011;57063;51.406;-2.402;2023-08-20T13:46:40;4.78;;;1.75;;
48881;SDS011;57063;51.406;-2.402;2023-08-20T13:49:05;3.40;;;0.60;;
48881;SDS011;57063;51.406;-2.402;2023-08-20T13:51:31;3.65;;;0.93;;
48881;SDS011;57063;51.406;-2.402;2023-08-20T13:53:57;3.53;;;0.55;;
48881;SDS011;57063;51.406;-2.402;2023-08-20T13:56:23;3.38;;;0.60;;
48881;SDS011;57063;51.406;-2.402;2023-08-20T13:58:49;5.30;;;1.00;;
48881;SDS011;57063;51.406;-2.402;2023-08-20T14:01:14;4.63;;;0.98;;
48881;SDS011;57063;51.406;-2.402;2023-08-20T14:03:40;4.68;;;0.82;;
48881;SDS011;57063;51.406;-2.402;2023-08-20T14:06:05;4.80;;;1.00;;
48881;SDS011;57063;51.406;-2.402;2023-08-20T14:08:32;3.88;;;0.80;;
48881;SDS011;57063;51.406;-2.402;2023-08-20T14:10:57;5.20;;;0.90;;
48881;SDS011;57063;51.406;-2.402;2023-08-20T14:13:23;4.20;;;0.60;;
48881;SDS011;57063;51.406;-2.402;2023-08-20T14:15:49;7.72;;;1.17;;
48881;SDS011;57063;51.406;-2.402;2023-08-20T14:18:14;3.28;;;0.70;;
48881;SDS011;57063;51.406;-2.402;2023-08-20T14:20:40;3.30;;;0.70;;
48881;SDS011;57063;51.406;-2.402;2023-08-20T14:23:05;3.53;;;1.20;;
48881;SDS011;57063;51.406;-2.402;2023-08-20T14:25:31;5.55;;;1.02;;
48881;SDS011;57063;51.406;-2.402;2023-08-20T14:27:56;2.40;;;0.70;;
48881;SDS011;57063;51.406;-2.402;2023-08-20T14:30:21;4.80;;;0.73;;
48881;SDS011;57063;51.406;-2.402;2023-08-20T14:32:47;7.15;;;0.90;;
48881;SDS011;57063;51.406;-2.402;2023-08-20T14:35:12;4.18;;;1.00;;
48881;SDS011;57063;51.406;-2.402;2023-08-20T14:37:38;4.68;;;1.00;;
48881;SDS011;57063;51.406;-2.402;2023-08-20T14:40:03;5.07;;;0.57;;
48881;SDS011;57063;51.406;-2.402;2023-08-20T14:42:33;3.88;;;0.77;;
48881;SDS011;57063;51.406;-2.402;2023-08-20T14:44:58;3.75;;;0.88;;
48881;SDS011;57063;51.406;-2.402;2023-08-20T14:47:24;1.83;;;0.90;;
48881;SDS011;57063;51.406;-2.402;2023-08-20T14:49:49;9.32;;;1.10;;